Time;durP1;ratioP1;P1;durP2;ratioP2;P2;SDS_P1;SDS_P2;PMS_P1;PMS_P2;Temp;Humidity;BMP_temperature;BMP_pressure;BME280_temperature;BME280_humidity;BME280_pressure;Samples;Min_cycle;Max_cycle;Signal;HPM_P1;HPM_P2
2022/10/01 00:01:51;;;;;;;6.20;5.60;;;11.40;99.90;;;;;;4995183;28;20512;-85
2022/10/01 00:04:16;;;;;;;7.68;5.95;;;11.50;99.90;;;;;;5015332;28;20056;-85
2022/10/01 00:06:42;;;;;;;7.80;6.85;;;11.40;99.90;;;;;;5011101;28;20037;-85
2022/10/01 00:09:08;;;;;;;7.65;6.82;;;11.40;99.90;;;;;;4996352;28;20121;-85
2022/10/01 00:11:33;;;;;;;7.88;7.05;;;11.30;99.90;;;;;;4989956;28;20045;-85
2022/10/01 00:14:00;;;;;;;6.63;6.03;;;11.40;99.90;;;;;;4994951;28;20046;-85
2022/10/01 00:16:27;;;;;;;9.57;6.93;;;11.30;99.90;;;;;;4996179;28;20046;-86
2022/10/01 00:18:54;;;;;;;7.20;6.43;;;11.30;99.90;;;;;;4998693;28;20050;-85
2022/10/01 00:21:24;;;;;;;6.95;6.32;;;11.20;99.90;;;;;;5000563;28;20038;-85
2022/10/01 00:23:56;;;;;;;7.68;6.97;;;11.30;99.90;;;;;;5019694;28;20052;-85
2022/10/01 00:26:26;;;;;;;7.97;7.10;;;11.30;99.90;;;;;;4987490;28;21252;-86
2022/10/01 00:29:12;;;;;;;10.75;7.95;;;11.30;99.90;;;;;;4997015;28;20402;-85
2022/10/01 00:31:37;;;;;;;8.93;7.60;;;11.90;99.90;;;;;;5016190;28;20528;-85
2022/10/01 00:34:04;;;;;;;8.07;7.38;;;11.30;99.90;;;;;;5012282;28;20037;-85
2022/10/01 00:36:30;;;;;;;11.02;7.82;;;11.20;99.90;;;;;;4994963;28;20042;-84
2022/10/01 00:38:59;;;;;;;8.40;7.60;;;11.30;99.90;;;;;;4997126;28;20042;-85
2022/10/01 00:41:30;;;;;;;10.07;8.27;;;12.10;99.90;;;;;;4987949;28;20408;-85
2022/10/01 00:44:02;;;;;;;8.20;7.40;;;11.20;99.90;;;;;;5014996;28;20057;-86
2022/10/01 00:46:45;;;;;;;8.75;7.95;;;11.20;99.90;;;;;;5012826;28;20041;-85
2022/10/01 00:49:19;;;;;;;9.02;7.82;;;11.20;99.90;;;;;;4986284;28;20120;-85
2022/10/01 00:52:09;;;;;;;8.93;8.02;;;11.50;99.90;;;;;;4997207;28;20038;-85
2022/10/01 00:55:14;;;;;;;9.90;8.13;;;11.20;99.90;;;;;;5014476;28;20481;-84
2022/10/01 00:57:40;;;;;;;10.05;7.57;;;11.20;99.90;;;;;;4997359;28;20050;-85
2022/10/01 01:00:08;;;;;;;10.95;7.47;;;11.20;99.90;;;;;;4995055;28;20049;-85
2022/10/01 01:02:34;;;;;;;9.25;8.20;;;11.20;99.90;;;;;;4997501;28;20049;-85
2022/10/01 01:05:00;;;;;;;12.40;8.50;;;11.20;99.90;;;;;;4997623;28;20138;-85
2022/10/01 01:07:28;;;;;;;8.50;7.70;;;11.30;99.90;;;;;;4996027;28;20524;-85
2022/10/01 01:09:54;;;;;;;8.57;7.82;;;11.10;99.90;;;;;;5001222;28;20129;-85
2022/10/01 01:12:25;;;;;;;9.50;8.55;;;11.10;99.90;;;;;;4997843;28;20038;-85
2022/10/01 01:15:08;;;;;;;8.35;7.57;;;11.10;99.90;;;;;;5018520;28;20068;-85
2022/10/01 01:17:41;;;;;;;13.10;8.15;;;11.10;99.90;;;;;;4985242;28;20037;-85
2022/10/01 01:20:17;;;;;;;8.18;7.35;;;11.10;99.90;;;;;;5005625;28;20884;-85
2022/10/01 01:22:53;;;;;;;9.52;8.68;;;11.10;99.90;;;;;;4985572;28;20053;-84
2022/10/01 01:25:24;;;;;;;9.93;7.80;;;11.50;99.90;;;;;;5015720;28;20068;-84
2022/10/01 01:28:20;;;;;;;13.23;8.45;;;11.10;99.90;;;;;;5018693;28;20141;-85
2022/10/01 01:30:50;;;;;;;8.43;7.68;;;11.10;99.90;;;;;;5001127;28;20053;-85
2022/10/01 01:33:19;;;;;;;11.40;8.05;;;11.10;99.90;;;;;;4978998;28;20516;-84
2022/10/01 01:35:50;;;;;;;9.13;8.35;;;11.10;99.90;;;;;;5013292;28;20050;-84
2022/10/01 01:38:27;;;;;;;9.20;8.30;;;11.10;99.90;;;;;;5004487;28;20243;-85
2022/10/01 01:40:56;;;;;;;8.80;8.02;;;11.10;99.90;;;;;;4987885;28;20045;-85
2022/10/01 01:43:35;;;;;;;7.82;7.18;;;11.10;99.90;;;;;;4980799;28;20038;-85
2022/10/01 01:46:04;;;;;;;11.00;7.95;;;11.40;99.90;;;;;;4997511;28;20084;-85
2022/10/01 01:48:31;;;;;;;8.63;7.63;;;11.10;99.90;;;;;;5002553;28;20486;-85
2022/10/01 01:51:05;;;;;;;8.57;7.78;;;11.10;99.90;;;;;;5014683;28;20390;-84
2022/10/01 01:53:31;;;;;;;8.77;7.88;;;11.10;99.90;;;;;;5017429;28;20052;-85
2022/10/01 01:55:59;;;;;;;7.97;7.25;;;11.10;99.90;;;;;;5015509;28;20038;-85
2022/10/01 01:58:26;;;;;;;8.57;7.82;;;11.00;99.90;;;;;;5015825;28;20050;-85
2022/10/01 02:00:52;;;;;;;8.55;7.75;;;11.10;99.90;;;;;;5016462;28;20034;-84
2022/10/01 02:03:21;;;;;;;8.90;8.07;;;11.00;99.90;;;;;;4979162;28;20482;-84
2022/10/01 02:06:15;;;;;;;8.10;7.18;;;11.20;99.90;;;;;;4995327;28;20107;-85
2022/10/01 02:08:50;;;;;;;8.13;7.32;;;11.10;99.90;;;;;;5000280;28;20038;-85
2022/10/01 02:11:31;;;;;;;7.72;7.13;;;11.10;99.90;;;;;;5001457;28;20382;-84
2022/10/01 02:14:02;;;;;;;8.20;7.50;;;11.60;99.90;;;;;;5000251;28;20068;-84
2022/10/01 02:16:45;;;;;;;13.13;7.13;;;11.70;99.90;;;;;;4997574;28;21983;-83
2022/10/01 02:19:23;;;;;;;8.23;7.53;;;11.10;99.90;;;;;;5002020;28;20942;-85
2022/10/01 02:21:49;;;;;;;7.53;6.70;;;11.10;99.90;;;;;;5003643;28;20045;-85
2022/10/01 02:24:49;;;;;;;7.50;6.70;;;11.10;99.90;;;;;;4979252;28;20091;-85
2022/10/01 02:27:24;;;;;;;6.90;6.20;;;11.10;99.90;;;;;;4981220;28;20041;-85
2022/10/01 02:29:51;;;;;;;6.18;5.60;;;11.10;99.90;;;;;;5002742;28;20042;-86
2022/10/01 02:32:18;;;;;;;9.18;5.97;;;11.10;99.90;;;;;;5017283;28;20052;-85
2022/10/01 02:34:46;;;;;;;5.85;5.25;;;11.70;99.90;;;;;;4996098;28;20490;-85
2022/10/01 02:37:12;;;;;;;5.82;5.35;;;11.10;99.90;;;;;;4981778;28;20072;-84
2022/10/01 02:39:40;;;;;;;5.88;5.45;;;11.10;99.90;;;;;;5015884;28;20034;-86
2022/10/01 02:42:08;;;;;;;6.00;5.50;;;11.10;99.90;;;;;;4987711;28;20045;-85
2022/10/01 02:44:39;;;;;;;5.53;5.13;;;11.10;99.90;;;;;;4997025;28;20433;-84
2022/10/01 02:47:27;;;;;;;6.22;4.75;;;11.10;99.90;;;;;;4994859;28;20045;-85
2022/10/01 02:49:53;;;;;;;4.65;4.25;;;11.10;99.90;;;;;;5004405;28;20394;-85
2022/10/01 02:52:32;;;;;;;5.35;4.95;;;11.10;99.90;;;;;;4995288;28;20069;-85
2022/10/01 02:55:17;;;;;;;5.97;4.57;;;11.20;99.90;;;;;;4996616;28;20073;-84
2022/10/01 02:57:43;;;;;;;4.25;3.88;;;11.20;99.90;;;;;;4995892;28;20045;-85
2022/10/01 03:00:12;;;;;;;5.13;3.75;;;11.60;99.90;;;;;;4986543;28;20056;-85
2022/10/01 03:02:38;;;;;;;6.40;4.55;;;11.20;99.90;;;;;;4984443;28;20034;-85
2022/10/01 03:05:04;;;;;;;4.60;4.20;;;11.20;99.90;;;;;;5003882;28;20445;-84
2022/10/01 03:07:33;;;;;;;4.03;3.72;;;11.20;99.90;;;;;;5013186;28;20026;-85
2022/10/01 03:09:59;;;;;;;3.30;3.10;;;11.40;99.90;;;;;;4983834;28;20034;-85
2022/10/01 03:12:24;;;;;;;4.47;4.07;;;11.90;99.90;;;;;;5016798;28;20080;-85
2022/10/01 03:14:50;;;;;;;4.78;3.60;;;11.20;99.90;;;;;;5012118;28;20046;-85
2022/10/01 03:17:16;;;;;;;3.80;3.50;;;11.30;99.90;;;;;;4994349;28;20651;-84
2022/10/01 03:19:42;;;;;;;4.03;3.70;;;11.30;99.90;;;;;;4997973;28;20030;-85
2022/10/01 03:22:12;;;;;;;3.95;3.45;;;11.30;99.90;;;;;;4980915;28;20375;-85
2022/10/01 03:24:37;;;;;;;3.70;3.40;;;11.40;99.90;;;;;;4997265;28;20045;-86
2022/10/01 03:27:03;;;;;;;3.90;3.53;;;11.30;99.90;;;;;;5001162;28;20041;-86
2022/10/01 03:29:29;;;;;;;3.63;3.33;;;11.30;99.90;;;;;;4996379;28;20512;-86
2022/10/01 03:31:55;;;;;;;4.05;3.63;;;11.30;99.90;;;;;;4988141;28;20046;-85
2022/10/01 03:34:21;;;;;;;2.75;2.55;;;11.30;99.90;;;;;;5015555;28;20116;-85
2022/10/01 03:36:47;;;;;;;3.30;2.70;;;11.80;99.90;;;;;;4985054;28;20042;-85
2022/10/01 03:39:13;;;;;;;4.35;3.30;;;11.30;99.90;;;;;;4980836;28;20092;-86
2022/10/01 03:41:38;;;;;;;5.28;2.95;;;11.20;99.90;;;;;;4995933;28;20029;-85
2022/10/01 03:44:04;;;;;;;3.10;2.80;;;11.30;99.90;;;;;;4998872;28;20102;-85
2022/10/01 03:46:30;;;;;;;2.63;2.42;;;11.30;99.90;;;;;;4994800;28;20067;-85
2022/10/01 03:48:57;;;;;;;2.42;2.22;;;11.30;99.90;;;;;;4985007;28;20037;-84
2022/10/01 03:51:22;;;;;;;2.63;2.42;;;11.30;99.90;;;;;;4989482;28;20105;-85
2022/10/01 03:53:49;;;;;;;2.67;2.47;;;11.40;99.90;;;;;;4998063;28;20112;-85
2022/10/01 03:56:15;;;;;;;2.35;2.15;;;11.30;99.90;;;;;;5002160;28;20056;-85
2022/10/01 03:58:40;;;;;;;2.97;2.47;;;11.30;99.90;;;;;;4986666;28;20034;-85
2022/10/01 04:01:06;;;;;;;1.80;1.70;;;11.50;99.90;;;;;;5014285;28;20709;-85
2022/10/01 04:03:31;;;;;;;2.00;1.90;;;11.30;99.90;;;;;;4995861;28;20049;-86
2022/10/01 04:05:57;;;;;;;3.20;2.67;;;11.30;99.90;;;;;;4999288;28;20038;-85
2022/10/01 04:08:23;;;;;;;2.13;1.92;;;11.40;99.90;;;;;;4979523;28;20490;-85
2022/10/01 04:10:48;;;;;;;2.17;1.98;;;11.30;99.90;;;;;;4981262;28;20038;-85
2022/10/01 04:13:15;;;;;;;2.10;1.83;;;11.30;99.90;;;;;;4999384;28;20052;-85
2022/10/01 04:15:41;;;;;;;2.95;1.83;;;11.40;99.90;;;;;;5002181;28;20077;-85
2022/10/01 04:18:07;;;;;;;3.33;2.20;;;11.40;99.90;;;;;;4999369;28;20146;-85
2022/10/01 04:20:34;;;;;;;1.83;1.73;;;11.40;99.90;;;;;;5017832;28;20049;-85
2022/10/01 04:23:00;;;;;;;1.98;1.77;;;11.80;99.90;;;;;;4986398;28;20042;-85
2022/10/01 04:25:27;;;;;;;2.80;1.83;;;11.40;99.90;;;;;;4992655;28;20473;-86
2022/10/01 04:27:58;;;;;;;2.40;2.20;;;11.40;99.90;;;;;;5002734;28;20045;-86
2022/10/01 04:30:25;;;;;;;3.17;1.83;;;11.40;99.90;;;;;;5000909;28;20038;-85
2022/10/01 04:32:51;;;;;;;2.25;1.80;;;11.50;99.90;;;;;;4992952;28;20778;-86
2022/10/01 04:35:17;;;;;;;3.47;2.00;;;11.40;99.90;;;;;;4996557;28;20042;-85
2022/10/01 04:37:42;;;;;;;2.35;1.90;;;11.40;99.90;;;;;;5019659;28;20038;-86
2022/10/01 04:40:09;;;;;;;1.90;1.70;;;11.50;99.90;;;;;;5008687;28;20034;-86
2022/10/01 04:42:39;;;;;;;2.00;1.85;;;11.40;99.90;;;;;;5030371;28;20077;-85
2022/10/01 04:45:05;;;;;;;3.13;1.58;;;11.50;99.90;;;;;;5013116;28;20103;-85
2022/10/01 04:47:31;;;;;;;2.00;1.90;;;11.50;99.90;;;;;;5007905;28;20509;-85
2022/10/01 04:49:56;;;;;;;2.30;1.95;;;11.50;99.90;;;;;;4996075;28;20036;-86
2022/10/01 04:52:22;;;;;;;1.92;1.63;;;11.50;99.90;;;;;;5011633;28;20767;-85
2022/10/01 04:54:51;;;;;;;1.88;1.77;;;11.50;99.90;;;;;;5006927;28;20149;-85
2022/10/01 04:57:20;;;;;;;2.17;1.60;;;11.50;99.90;;;;;;5006257;28;20049;-85
2022/10/01 04:59:46;;;;;;;1.52;1.42;;;11.60;99.90;;;;;;4998730;28;20057;-85
2022/10/01 05:02:12;;;;;;;2.05;1.85;;;11.50;99.90;;;;;;5015958;28;20034;-85
2022/10/01 05:04:38;;;;;;;2.38;1.80;;;11.80;99.90;;;;;;5021762;28;20513;-86
2022/10/01 05:07:06;;;;;;;1.90;1.80;;;11.60;99.90;;;;;;4998884;28;20486;-86
2022/10/01 05:09:32;;;;;;;3.88;1.92;;;11.60;99.90;;;;;;5000640;28;20112;-86
2022/10/01 05:11:57;;;;;;;1.63;1.52;;;11.80;99.90;;;;;;5003462;28;20169;-86
2022/10/01 05:14:24;;;;;;;1.77;1.67;;;11.70;99.90;;;;;;4999816;28;20065;-86
2022/10/01 05:16:50;;;;;;;2.05;1.85;;;11.70;99.90;;;;;;5006502;28;20037;-86
2022/10/01 05:19:16;;;;;;;2.75;1.85;;;11.70;99.90;;;;;;4986651;28;20108;-85
2022/10/01 05:21:42;;;;;;;2.85;1.77;;;11.70;99.90;;;;;;4989037;28;20040;-85
2022/10/01 05:24:08;;;;;;;2.53;2.33;;;11.70;99.90;;;;;;5020204;28;20120;-85
2022/10/01 05:26:35;;;;;;;2.90;2.20;;;11.80;99.90;;;;;;5017387;28;20041;-85
2022/10/01 05:29:01;;;;;;;2.15;1.95;;;11.80;99.90;;;;;;4987813;28;20113;-86
2022/10/01 05:31:27;;;;;;;4.03;2.10;;;11.80;99.90;;;;;;5018474;28;20163;-86
2022/10/01 05:33:52;;;;;;;2.47;2.33;;;12.30;99.90;;;;;;5003712;28;20037;-85
2022/10/01 05:36:18;;;;;;;3.67;2.67;;;11.80;99.90;;;;;;4997023;28;20046;-86
2022/10/01 05:38:47;;;;;;;5.13;2.80;;;11.80;99.90;;;;;;5001371;28;20132;-85
2022/10/01 05:41:12;;;;;;;3.00;2.70;;;11.90;99.90;;;;;;5002140;28;20131;-85
2022/10/01 05:43:38;;;;;;;3.78;2.58;;;11.90;99.90;;;;;;4994157;28;20064;-85
2022/10/01 05:46:04;;;;;;;3.95;3.35;;;12.00;99.90;;;;;;4981744;28;20030;-85
2022/10/01 05:48:35;;;;;;;3.75;3.08;;;12.00;99.90;;;;;;5003938;28;20188;-86
2022/10/01 05:51:05;;;;;;;3.75;3.42;;;12.00;99.90;;;;;;4986665;28;20034;-85
2022/10/01 05:53:31;;;;;;;3.55;3.00;;;12.00;99.90;;;;;;4997892;28;20050;-85
2022/10/01 05:56:01;;;;;;;3.05;2.85;;;12.00;99.90;;;;;;5002943;28;20095;-85
2022/10/01 05:58:26;;;;;;;5.28;3.10;;;12.20;99.90;;;;;;4997097;28;20065;-85
2022/10/01 06:00:54;;;;;;;4.75;4.25;;;12.10;99.90;;;;;;5016804;28;20034;-85
2022/10/01 06:03:20;;;;;;;4.25;3.75;;;12.10;99.90;;;;;;5015686;28;20054;-85
2022/10/01 06:05:46;;;;;;;4.07;3.60;;;12.70;99.90;;;;;;4986435;28;20096;-86
2022/10/01 06:08:13;;;;;;;6.38;3.10;;;12.50;99.90;;;;;;4988535;28;20061;-86
2022/10/01 06:10:39;;;;;;;5.13;4.32;;;12.50;99.90;;;;;;5015867;28;20398;-86
2022/10/01 06:13:06;;;;;;;6.50;4.10;;;12.20;99.90;;;;;;5021048;28;20040;-85
2022/10/01 06:15:36;;;;;;;4.55;4.15;;;12.20;99.90;;;;;;5002031;28;20482;-86
2022/10/01 06:18:06;;;;;;;5.75;4.05;;;12.30;99.90;;;;;;5000223;28;20038;-86
2022/10/01 06:20:33;;;;;;;4.72;4.05;;;12.30;99.90;;;;;;5016404;28;20040;-85
2022/10/01 06:22:58;;;;;;;7.93;4.18;;;12.30;99.90;;;;;;4996778;28;20116;-85
2022/10/01 06:25:27;;;;;;;4.25;3.88;;;12.80;99.90;;;;;;4989990;28;20485;-85
2022/10/01 06:27:55;;;;;;;8.18;4.35;;;12.30;99.90;;;;;;5019994;28;20121;-85
2022/10/01 06:30:21;;;;;;;4.95;4.55;;;12.30;99.90;;;;;;4985599;28;20068;-85
2022/10/01 06:32:46;;;;;;;8.55;5.43;;;12.40;99.90;;;;;;5020116;28;20528;-86
2022/10/01 06:35:13;;;;;;;6.55;5.03;;;12.40;99.90;;;;;;5005909;28;20041;-86
2022/10/01 06:37:38;;;;;;;4.63;4.05;;;13.20;99.90;;;;;;4996724;28;20045;-85
2022/10/01 06:40:05;;;;;;;5.30;4.03;;;12.50;99.90;;;;;;5000265;28;20041;-85
2022/10/01 06:42:30;;;;;;;8.38;4.88;;;12.50;99.90;;;;;;4996731;28;20115;-86
2022/10/01 06:44:56;;;;;;;4.75;4.15;;;12.90;99.90;;;;;;5021833;28;20401;-85
2022/10/01 06:47:21;;;;;;;7.65;4.38;;;12.70;99.90;;;;;;5003468;28;20041;-85
2022/10/01 06:49:47;;;;;;;6.47;3.97;;;13.10;99.90;;;;;;4989974;28;20041;-86
2022/10/01 06:54:58;;;;;;;8.27;3.58;;;13.00;99.90;;;;;;4996891;28;20034;-86
2022/10/01 06:57:27;;;;;;;4.25;3.13;;;13.10;99.90;;;;;;5018476;28;20072;-87
2022/10/01 09:13:25;;;;;;;9.57;1.45;;;15.90;99.90;;;;;;5023463;28;20784;-86
2022/10/01 10:08:29;;;;;;;5.38;0.70;;;15.00;99.90;;;;;;5013305;28;20445;-85
2022/10/01 10:11:51;;;;;;;6.07;0.68;;;15.00;99.90;;;;;;5008238;28;20088;-85
2022/10/01 10:30:14;;;;;;;10.73;1.52;;;15.50;99.90;;;;;;4962201;28;20042;-85
2022/10/01 10:33:07;;;;;;;6.57;0.82;;;15.40;99.90;;;;;;4955296;28;20853;-85
2022/10/01 10:35:35;;;;;;;5.25;0.70;;;15.30;99.90;;;;;;4990852;28;20129;-83
2022/10/01 10:38:33;;;;;;;8.98;1.77;;;15.10;99.90;;;;;;4985035;28;20049;-84
2022/10/01 10:41:05;;;;;;;7.90;1.00;;;15.00;99.90;;;;;;4998786;28;20133;-84
2022/10/01 10:43:36;;;;;;;6.28;0.80;;;14.90;99.90;;;;;;4982313;28;20045;-83
2022/10/01 10:46:02;;;;;;;5.90;1.08;;;14.80;99.90;;;;;;4986090;28;20066;-82
2022/10/01 10:48:42;;;;;;;4.78;0.65;;;14.60;99.90;;;;;;4996975;28;20038;-85
2022/10/01 10:51:09;;;;;;;3.30;0.50;;;14.50;99.90;;;;;;4999781;28;20044;-84
2022/10/01 10:53:43;;;;;;;3.63;0.52;;;14.60;99.90;;;;;;5013227;28;20041;-84
2022/10/01 10:56:19;;;;;;;7.28;0.60;;;14.30;99.90;;;;;;5016996;28;20041;-83
2022/10/01 10:58:45;;;;;;;3.75;0.80;;;14.10;99.90;;;;;;5016096;28;20390;-83
2022/10/01 11:01:18;;;;;;;3.53;0.63;;;14.00;99.90;;;;;;5013782;28;20045;-83
2022/10/01 11:04:07;;;;;;;4.45;0.60;;;14.00;99.90;;;;;;5002320;28;20061;-84
2022/10/01 11:06:33;;;;;;;2.42;0.38;;;14.10;99.90;;;;;;4998723;28;20053;-85
2022/10/01 11:13:18;;;;;;;4.05;0.50;;;14.10;99.90;;;;;;5016303;28;20052;-83
2022/10/01 11:16:24;;;;;;;4.65;0.80;;;14.40;99.90;;;;;;5010414;28;20103;-82
2022/10/01 11:19:00;;;;;;;4.03;0.60;;;14.30;99.90;;;;;;5000828;28;20053;-83
2022/10/01 11:21:57;;;;;;;7.80;0.77;;;14.40;99.90;;;;;;5003157;28;20060;-82
2022/10/01 11:36:40;;;;;;;5.90;0.70;;;15.00;99.90;;;;;;4978464;28;20085;-86
2022/10/01 11:39:43;;;;;;;7.15;1.25;;;15.30;99.90;;;;;;4848195;29;20741;-85
2022/10/01 11:42:41;;;;;;;7.65;1.13;;;15.60;99.90;;;;;;4952020;28;20046;-84
2022/10/01 11:45:46;;;;;;;11.95;1.20;;;15.90;99.90;;;;;;4999919;28;20053;-85
2022/10/01 11:49:20;;;;;;;9.75;1.73;;;16.20;99.90;;;;;;5007330;28;20044;-86
2022/10/01 11:52:31;;;;;;;9.02;1.13;;;16.40;99.90;;;;;;4980555;28;20041;-85
2022/10/01 12:03:15;;;;;;;7.75;1.65;;;17.10;99.90;;;;;;4912127;29;20051;-85
2022/10/01 12:25:41;;;;;;;12.93;1.67;;;16.80;99.90;;;;;;4918460;28;20074;-85
2022/10/01 12:29:04;;;;;;;10.38;1.40;;;16.50;99.90;;;;;;4905497;29;20126;-86
2022/10/01 12:40:19;;;;;;;5.97;1.40;;;16.60;99.90;;;;;;5013281;28;20539;-86
2022/10/01 12:44:21;;;;;;;12.07;1.38;;;16.50;99.90;;;;;;4955848;28;20102;-86
2022/10/01 12:58:53;;;;;;;16.98;2.40;;;16.50;99.90;;;;;;4882673;29;20036;-86
2022/10/01 13:09:58;;;;;;;13.63;2.53;;;16.70;99.90;;;;;;4885595;29;20080;-85
2022/10/01 13:12:43;;;;;;;6.88;1.73;;;16.60;99.90;;;;;;4871045;29;20057;-82
2022/10/01 13:18:57;;;;;;;10.73;1.40;;;16.40;99.90;;;;;;4934432;29;20638;-84
2022/10/01 13:35:59;;;;;;;9.65;1.48;;;16.10;99.90;;;;;;5019588;28;20697;-84
2022/10/01 13:38:36;;;;;;;6.10;1.50;;;15.90;99.90;;;;;;5001219;28;20034;-82
2022/10/01 13:41:14;;;;;;;7.18;1.08;;;15.90;99.90;;;;;;5016710;28;20030;-82
2022/10/01 13:43:52;;;;;;;9.18;1.80;;;15.90;99.90;;;;;;4984202;28;20064;-83
2022/10/01 13:46:18;;;;;;;8.43;1.83;;;15.80;99.90;;;;;;5022062;28;20061;-84
2022/10/01 13:48:46;;;;;;;8.93;1.70;;;15.80;99.90;;;;;;5017649;28;20069;-85
2022/10/01 13:51:14;;;;;;;8.50;1.33;;;15.60;99.90;;;;;;5016591;28;20041;-84
2022/10/01 13:53:42;;;;;;;9.80;1.38;;;15.50;99.90;;;;;;5018179;28;20042;-84
2022/10/01 13:56:11;;;;;;;11.18;2.17;;;15.40;99.90;;;;;;4995090;28;20049;-83
2022/10/01 13:58:41;;;;;;;10.10;1.73;;;15.40;99.90;;;;;;4997182;28;20104;-83
2022/10/01 14:01:19;;;;;;;16.63;2.75;;;15.60;99.90;;;;;;5021281;28;20051;-84
2022/10/01 14:04:09;;;;;;;11.82;2.42;;;15.60;99.90;;;;;;5015718;28;20098;-83
2022/10/01 14:06:35;;;;;;;14.35;1.85;;;15.10;99.90;;;;;;4984220;28;20157;-82
2022/10/01 14:09:05;;;;;;;14.00;2.25;;;15.10;99.90;;;;;;5014468;28;20125;-83
2022/10/01 14:17:20;;;;;;;13.35;2.70;;;15.30;99.90;;;;;;5020471;28;20179;-83
2022/10/01 14:19:49;;;;;;;12.77;1.77;;;15.50;99.90;;;;;;5013222;28;20037;-83
2022/10/01 14:22:32;;;;;;;14.65;3.08;;;15.60;99.90;;;;;;5013921;28;20129;-83
2022/10/01 14:25:24;;;;;;;11.98;2.65;;;15.60;99.90;;;;;;5010513;28;20437;-83
2022/10/01 14:28:18;;;;;;;11.57;1.90;;;15.70;99.90;;;;;;5017708;28;20925;-85
2022/10/01 14:31:08;;;;;;;9.02;1.88;;;15.80;99.90;;;;;;5015515;28;20058;-83
2022/10/01 14:33:36;;;;;;;15.88;2.20;;;15.90;99.90;;;;;;5003177;28;20065;-83
2022/10/01 14:36:31;;;;;;;10.68;1.65;;;16.10;99.90;;;;;;5013434;28;20129;-83
2022/10/01 14:39:16;;;;;;;9.70;2.10;;;16.20;99.90;;;;;;4983222;28;20091;-83
2022/10/01 14:41:57;;;;;;;8.75;1.70;;;16.30;99.90;;;;;;5017270;28;20053;-83
2022/10/01 14:44:40;;;;;;;10.65;1.92;;;16.40;99.90;;;;;;5002266;28;20046;-83
2022/10/01 14:47:23;;;;;;;14.93;2.58;;;16.40;99.90;;;;;;4997385;28;20128;-83
2022/10/01 14:49:50;;;;;;;11.35;2.53;;;16.50;99.90;;;;;;4998675;28;20046;-83
2022/10/01 14:52:28;;;;;;;13.70;2.33;;;16.50;99.90;;;;;;4980700;28;20095;-82
2022/10/01 14:55:07;;;;;;;13.45;3.15;;;16.50;99.90;;;;;;4999803;28;20429;-82
2022/10/01 14:57:50;;;;;;;12.50;2.08;;;16.50;99.90;;;;;;5006931;28;20041;-85
2022/10/01 15:00:19;;;;;;;10.90;2.95;;;16.60;99.90;;;;;;4984569;28;20049;-82
2022/10/01 15:03:22;;;;;;;15.38;2.47;;;16.60;99.90;;;;;;4992521;28;20521;-84
2022/10/01 15:06:44;;;;;;;10.00;2.13;;;16.60;99.90;;;;;;4942317;28;20393;-86
2022/10/01 15:09:34;;;;;;;;;;;16.60;99.90;;;;;;4923688;29;20039;-84
2022/10/01 15:19:30;;;;;;;9.93;2.67;;;16.60;99.90;;;;;;4982807;28;20044;-82
2022/10/01 15:25:30;;;;;;;12.45;2.22;;;16.40;99.90;;;;;;4967127;28;20050;-83
2022/10/01 15:27:59;;;;;;;13.80;2.17;;;16.30;99.90;;;;;;4982427;28;20065;-82
2022/10/01 15:30:26;;;;;;;12.20;2.17;;;16.20;99.90;;;;;;4980131;28;20077;-83
2022/10/01 15:32:53;;;;;;;16.50;2.40;;;16.10;99.90;;;;;;4935554;28;20431;-83
2022/10/01 15:35:21;;;;;;;11.65;2.55;;;16.00;99.90;;;;;;4968366;28;20838;-84
2022/10/01 15:37:48;;;;;;;11.38;1.83;;;15.80;99.90;;;;;;4967532;28;20134;-84
2022/10/01 15:40:27;;;;;;;10.88;2.13;;;15.80;99.90;;;;;;4965486;28;20081;-82
2022/10/01 15:43:30;;;;;;;11.73;2.42;;;15.70;99.90;;;;;;4980034;28;20532;-83
2022/10/01 15:46:19;;;;;;;10.15;1.80;;;15.70;99.90;;;;;;4974418;28;20041;-86
2022/10/01 15:48:45;;;;;;;10.90;1.55;;;15.60;99.90;;;;;;4996508;28;20037;-83
2022/10/01 15:51:23;;;;;;;9.30;1.58;;;15.50;99.90;;;;;;4992556;28;20386;-83
2022/10/01 15:53:50;;;;;;;14.25;2.10;;;15.40;99.90;;;;;;5011648;28;20041;-83
2022/10/01 15:56:19;;;;;;;17.58;2.78;;;15.50;99.90;;;;;;4985768;28;20065;-83
2022/10/01 15:58:52;;;;;;;14.25;3.25;;;15.70;99.90;;;;;;4999223;28;20192;-83
2022/10/01 16:01:22;;;;;;;14.95;2.65;;;15.30;99.90;;;;;;5012936;28;20410;-83
2022/10/01 16:03:53;;;;;;;13.27;2.35;;;15.20;99.90;;;;;;5009745;28;20037;-83
2022/10/01 16:06:35;;;;;;;10.68;1.90;;;15.20;99.90;;;;;;4976897;28;20040;-82
2022/10/01 16:09:17;;;;;;;10.70;1.63;;;15.20;99.90;;;;;;5011411;28;20129;-85
2022/10/01 16:12:17;;;;;;;15.40;3.25;;;15.10;99.90;;;;;;4998600;28;20077;-83
2022/10/01 16:14:55;;;;;;;10.57;1.88;;;14.70;99.90;;;;;;4981135;28;20049;-83
2022/10/01 16:21:14;;;;;;;11.10;2.17;;;15.00;99.90;;;;;;5011303;28;20107;-85
2022/10/01 16:24:41;;;;;;;12.45;1.95;;;14.80;99.90;;;;;;4993750;28;20053;-84
2022/10/01 16:34:44;;;;;;;12.63;1.90;;;14.60;99.90;;;;;;5009082;28;20044;-85
2022/10/01 16:37:10;;;;;;;;;;;14.60;99.90;;;;;;4982323;28;20117;-84
2022/10/01 16:39:35;;;;;;;16.15;2.90;;;14.40;99.90;;;;;;4995230;28;20063;-84
2022/10/01 16:42:01;;;;;;;12.35;1.98;;;14.50;99.90;;;;;;5015607;28;20133;-84
2022/10/01 16:44:27;;;;;;;10.93;1.70;;;14.30;99.90;;;;;;5016184;28;20120;-83
2022/10/01 16:46:55;;;;;;;15.77;2.45;;;14.30;99.90;;;;;;4998167;28;20517;-84
2022/10/01 16:49:21;;;;;;;14.65;2.95;;;14.20;99.90;;;;;;5021232;28;20046;-84
2022/10/01 16:51:51;;;;;;;19.27;3.50;;;14.80;99.90;;;;;;5008780;28;20056;-83
2022/10/01 16:54:23;;;;;;;14.05;3.00;;;14.10;99.90;;;;;;4991876;28;20049;-83
2022/10/01 16:56:51;;;;;;;17.17;3.65;;;14.10;99.90;;;;;;4998133;28;20512;-83
2022/10/01 16:59:17;;;;;;;14.07;3.15;;;14.00;99.90;;;;;;5013730;28;20778;-83
2022/10/01 17:01:44;;;;;;;11.60;3.00;;;14.00;99.90;;;;;;5008157;28;20041;-84
2022/10/01 17:04:12;;;;;;;16.48;3.42;;;13.90;99.90;;;;;;5006794;28;20515;-85
2022/10/01 17:06:39;;;;;;;13.65;2.40;;;13.90;99.90;;;;;;5012144;28;20042;-84
2022/10/01 17:09:05;;;;;;;20.45;3.05;;;13.90;99.90;;;;;;4997212;28;20046;-84
2022/10/01 17:11:31;;;;;;;17.88;3.10;;;13.90;99.90;;;;;;4999723;28;20069;-84
2022/10/01 17:13:56;;;;;;;12.02;3.25;;;14.10;99.90;;;;;;5016108;28;20488;-83
2022/10/01 17:16:22;;;;;;;17.80;3.92;;;13.80;99.90;;;;;;4984721;28;20049;-84
2022/10/01 17:18:47;;;;;;;14.00;3.55;;;13.80;99.90;;;;;;4999829;28;20072;-84
2022/10/01 17:21:13;;;;;;;18.25;2.88;;;13.80;99.90;;;;;;5007750;28;21584;-83
2022/10/01 17:23:38;;;;;;;9.40;1.98;;;13.70;99.90;;;;;;5020323;28;20041;-83
2022/10/01 17:26:08;;;;;;;15.93;3.70;;;13.70;99.90;;;;;;5000272;28;20066;-83
2022/10/01 17:28:34;;;;;;;13.00;2.30;;;13.60;99.90;;;;;;5003956;28;20410;-83
2022/10/01 17:31:05;;;;;;;22.23;2.85;;;13.50;99.90;;;;;;5003836;28;20046;-83
2022/10/01 17:33:43;;;;;;;9.13;1.50;;;13.80;99.90;;;;;;5019378;28;20057;-84
2022/10/01 17:36:34;;;;;;;12.10;2.63;;;13.40;99.90;;;;;;5004120;28;20120;-83
2022/10/01 17:39:26;;;;;;;11.68;3.33;;;13.30;99.90;;;;;;4990888;28;20168;-84
2022/10/01 17:42:23;;;;;;;11.10;3.22;;;13.60;99.90;;;;;;5004812;28;20042;-83
2022/10/01 17:44:53;;;;;;;12.52;4.15;;;13.20;99.90;;;;;;4976149;28;20064;-83
2022/10/01 17:47:45;;;;;;;11.60;4.30;;;13.20;99.90;;;;;;5015415;28;20413;-84
2022/10/01 17:50:17;;;;;;;15.38;4.13;;;13.10;99.90;;;;;;4979849;28;20042;-83
2022/10/01 17:53:01;;;;;;;10.73;3.20;;;13.60;99.90;;;;;;5003841;28;20161;-84
2022/10/01 17:55:45;;;;;;;14.43;4.32;;;13.10;99.90;;;;;;5000197;28;20033;-84
2022/10/01 17:58:25;;;;;;;15.27;4.03;;;13.00;99.90;;;;;;5008506;28;20041;-84
2022/10/01 18:01:28;;;;;;;11.82;3.40;;;12.90;99.90;;;;;;5000047;28;20818;-84
2022/10/01 18:03:54;;;;;;;12.02;3.22;;;12.90;99.90;;;;;;5005827;28;20086;-81
2022/10/01 18:06:21;;;;;;;15.48;2.85;;;12.90;99.90;;;;;;4996080;28;20045;-80
2022/10/01 18:08:46;;;;;;;8.50;2.38;;;12.70;99.90;;;;;;4997993;28;20049;-82
2022/10/01 18:11:12;;;;;;;10.85;2.60;;;12.70;99.90;;;;;;5016269;28;20041;-81
2022/10/01 18:13:38;;;;;;;7.60;1.85;;;12.70;99.90;;;;;;5002228;28;20037;-81
2022/10/01 18:16:16;;;;;;;10.52;2.47;;;12.70;99.90;;;;;;5002732;28;20054;-83
2022/10/01 18:18:43;;;;;;;10.20;2.22;;;12.60;99.90;;;;;;4992781;28;20473;-84
2022/10/01 18:21:14;;;;;;;16.38;3.83;;;12.60;99.90;;;;;;4983525;28;20140;-83
2022/10/01 18:23:43;;;;;;;18.73;5.03;;;12.50;99.90;;;;;;4999870;28;20394;-84
2022/10/01 18:26:11;;;;;;;17.60;4.65;;;12.40;99.90;;;;;;4979802;28;20053;-84
2022/10/01 18:28:37;;;;;;;15.70;3.40;;;12.50;99.90;;;;;;4991372;28;20037;-82
2022/10/01 18:31:11;;;;;;;11.57;3.97;;;12.50;99.90;;;;;;4998475;28;20444;-83
2022/10/01 18:33:50;;;;;;;10.00;1.90;;;12.40;99.90;;;;;;4999947;28;20823;-83
2022/10/01 18:36:40;;;;;;;8.15;2.13;;;12.40;99.90;;;;;;5005901;28;20418;-82
2022/10/01 18:39:13;;;;;;;10.68;3.08;;;12.30;99.90;;;;;;4983991;28;20595;-84